createdAt,value
2023-03-26T00:09:21.062Z,9.49
2023-03-26T00:24:29.656Z,11.66
2023-03-26T00:39:33.794Z,10.70
2023-03-26T00:54:36.390Z,9.64
2023-03-26T01:09:45.723Z,11.70
2023-03-26T01:24:54.095Z,11.01
2023-03-26T01:40:07.132Z,10.12
2023-03-26T01:55:11.872Z,12.35
2023-03-26T02:10:22.314Z,11.47
2023-03-26T02:25:24.910Z,10.22
2023-03-26T02:40:28.051Z,11.30
2023-03-26T02:55:30.782Z,10.48
2023-03-26T03:10:33.359Z,11.48
2023-03-26T03:25:39.571Z,11.16
2023-03-26T03:40:45.558Z,12.11
2023-03-26T03:55:53.684Z,11.32
2023-03-26T04:10:59.105Z,11.53
2023-03-26T04:26:05.548Z,12.17
2023-03-26T04:41:13.246Z,10.50
2023-03-26T04:56:38.236Z,11.47
2023-03-26T05:11:41.400Z,10.72
2023-03-26T05:26:43.970Z,11.22
2023-03-26T05:41:49.471Z,12.38
2023-03-26T05:56:53.011Z,11.51
2023-03-26T06:11:55.974Z,10.97
2023-03-26T06:26:58.822Z,12.32
2023-03-26T06:42:01.542Z,11.94
2023-03-26T06:57:05.483Z,11.31
2023-03-26T07:12:12.681Z,11.24
2023-03-26T07:27:40.541Z,11.46
2023-03-26T07:42:46.316Z,11.79
2023-03-26T07:58:11.650Z,12.33
2023-03-26T08:13:25.437Z,13.07
2023-03-26T08:28:37.911Z,14.06
2023-03-26T08:43:55.105Z,14.06
2023-03-26T08:59:20.473Z,16.39
2023-03-26T09:14:51.483Z,19.16
2023-03-26T09:30:13.325Z,20.90
2023-03-26T09:45:18.614Z,17.89
2023-03-26T10:00:35.525Z,14.80
2023-03-26T10:16:05.606Z,16.09
2023-03-26T10:31:29.721Z,16.62
2023-03-26T10:47:04.694Z,16.58
2023-03-26T11:02:39.222Z,16.68
2023-03-26T11:18:08.108Z,16.29
2023-03-26T11:33:18.343Z,16.44
2023-03-26T11:48:28.316Z,17.32
2023-03-26T12:03:31.946Z,17.09
2023-03-26T12:18:35.104Z,16.08
2023-03-26T12:33:39.064Z,15.45
2023-03-26T12:48:42.077Z,15.47
2023-03-26T13:04:07.146Z,15.76
2023-03-26T13:19:20.680Z,15.69
2023-03-26T13:34:41.413Z,15.76
2023-03-26T13:49:49.653Z,16.06
2023-03-26T14:04:58.532Z,16.33
2023-03-26T14:20:22.673Z,16.20
2023-03-26T14:35:35.227Z,15.85
2023-03-26T14:51:19.872Z,15.55
2023-03-26T15:06:55.192Z,15.33
2023-03-26T15:22:19.894Z,14.88
2023-03-26T15:37:56.704Z,14.44
2023-03-26T15:53:11.754Z,14.29
2023-03-26T16:08:28.593Z,14.36
2023-03-26T16:23:47.300Z,13.33
2023-03-26T16:39:12.130Z,14.19
2023-03-26T16:54:17.594Z,14.48
2023-03-26T17:09:31.696Z,12.81
2023-03-26T17:24:42.822Z,13.05
2023-03-26T17:40:12.339Z,11.44
2023-03-26T17:55:19.767Z,14.13
2023-03-26T18:10:51.883Z,13.68
2023-03-26T18:26:09.828Z,11.42
2023-03-26T18:41:27.355Z,13.74
2023-03-26T18:56:35.294Z,12.68
2023-03-26T19:11:40.545Z,14.25
2023-03-26T19:26:44.131Z,12.72
2023-03-26T19:41:51.435Z,11.07
2023-03-26T19:56:54.021Z,14.06
2023-03-26T20:11:56.899Z,13.17
2023-03-26T20:26:59.476Z,11.24
2023-03-26T20:42:02.167Z,10.25
2023-03-26T20:57:04.823Z,13.68
2023-03-26T21:12:16.912Z,13.25
2023-03-26T21:27:43.590Z,11.08
2023-03-26T21:42:49.749Z,13.75
2023-03-26T21:58:12.288Z,12.64
2023-03-26T22:13:15.314Z,13.82
2023-03-26T22:28:19.641Z,12.19
2023-03-26T22:43:22.295Z,13.51
2023-03-26T22:58:25.464Z,12.05
2023-03-26T23:13:28.276Z,10.44
2023-03-26T23:28:32.172Z,12.57
2023-03-26T23:43:35.099Z,11.50
2023-03-26T23:58:37.728Z,13.40
